createdAt,value
2023-04-25T00:00:59.954Z,16.40
2023-04-25T00:03:26.946Z,17.50
2023-04-25T00:05:54.087Z,19.60
2023-04-25T00:08:20.983Z,15.40
2023-04-25T00:10:49.519Z,15.60
2023-04-25T00:13:17.876Z,14.10
2023-04-25T00:15:44.779Z,15.20
2023-04-25T00:18:11.688Z,15.40
2023-04-25T00:20:38.678Z,14.10
2023-04-25T00:23:05.617Z,14.30
2023-04-25T00:25:34.038Z,13.40
2023-04-25T00:28:00.969Z,10.10
2023-04-25T00:30:27.693Z,10.30
2023-04-25T00:32:54.852Z,9.90
2023-04-25T00:35:21.829Z,11.30
2023-04-25T00:37:48.728Z,12.40
2023-04-25T00:40:15.634Z,9.40
2023-04-25T00:42:42.562Z,10.70
2023-04-25T00:45:09.487Z,9.80
2023-04-25T00:47:36.598Z,10.40
2023-04-25T00:50:04.349Z,10.10
2023-04-25T00:52:31.903Z,11.80
2023-04-25T00:54:58.848Z,10.50
2023-04-25T00:57:26.359Z,11.00
2023-04-25T00:59:53.707Z,10.60
2023-04-25T01:02:21.177Z,9.70
2023-04-25T01:04:48.631Z,9.70
2023-04-25T01:07:17.264Z,8.60
2023-04-25T01:09:44.219Z,7.70
2023-04-25T01:12:11.558Z,9.50
2023-04-25T01:14:38.659Z,9.40
2023-04-25T01:17:08.308Z,9.20
2023-04-25T01:19:36.045Z,8.40
2023-04-25T01:22:04.219Z,8.90
2023-04-25T01:24:34.224Z,8.10
2023-04-25T01:27:01.882Z,8.30
2023-04-25T01:29:28.856Z,8.20
2023-04-25T01:31:55.881Z,9.30
2023-04-25T01:34:23.126Z,9.10
2023-04-25T01:36:50.190Z,8.60
2023-04-25T01:39:20.530Z,9.20
2023-04-25T01:41:47.978Z,8.60
2023-04-25T01:44:15.173Z,8.70
2023-04-25T01:46:42.039Z,8.60
2023-04-25T01:49:09.079Z,8.70
2023-04-25T01:51:36.409Z,9.40
2023-04-25T01:54:03.563Z,8.90
2023-04-25T01:56:33.175Z,8.80
2023-04-25T01:59:00.537Z,8.90
2023-04-25T02:01:47.855Z,9.20
2023-04-25T02:04:22.375Z,8.90
2023-04-25T02:06:49.868Z,8.60
2023-04-25T02:09:17.835Z,7.70
2023-04-25T02:11:49.258Z,7.80
2023-04-25T02:14:29.325Z,8.30
2023-04-25T02:17:25.549Z,7.80
2023-04-25T02:19:52.491Z,9.00
2023-04-25T02:22:19.529Z,8.40
2023-04-25T02:24:47.047Z,7.80
2023-04-25T02:27:15.106Z,11.10
2023-04-25T02:29:42.068Z,13.50
2023-04-25T02:32:12.959Z,15.20
2023-04-25T02:34:42.296Z,14.10
2023-04-25T02:37:09.247Z,12.90
2023-04-25T02:39:36.260Z,12.30
2023-04-25T02:42:03.409Z,12.90
2023-04-25T02:44:30.548Z,14.10
2023-04-25T02:46:57.362Z,12.20
2023-04-25T02:49:24.306Z,12.10
2023-04-25T02:51:52.904Z,13.80
2023-04-25T02:54:19.974Z,14.60
2023-04-25T02:56:47.960Z,13.40
2023-04-25T02:59:21.996Z,13.90
2023-04-25T03:01:49.303Z,13.90
2023-04-25T03:04:16.326Z,13.50
2023-04-25T03:06:43.455Z,13.90
2023-04-25T03:09:10.384Z,13.90
2023-04-25T03:11:38.871Z,16.50
2023-04-25T03:14:06.281Z,15.80
2023-04-25T03:16:33.419Z,14.40
2023-04-25T03:19:00.816Z,15.70
2023-04-25T03:21:27.696Z,15.30
2023-04-25T03:23:54.540Z,14.60
2023-04-25T03:26:21.870Z,13.30
2023-04-25T03:28:49.296Z,15.00
2023-04-25T03:31:16.207Z,13.70
2023-04-25T03:33:43.257Z,14.40
2023-04-25T03:36:11.691Z,14.10
2023-04-25T03:38:38.777Z,12.60
2023-04-25T03:41:05.991Z,13.40
2023-04-25T03:43:39.922Z,14.20
2023-04-25T03:46:10.901Z,14.80
2023-04-25T03:48:38.348Z,15.90
2023-04-25T03:51:05.727Z,12.50
2023-04-25T03:53:45.666Z,16.40
2023-04-25T03:56:20.626Z,16.40
2023-04-25T03:58:50.281Z,13.30
2023-04-25T04:01:17.887Z,14.40
2023-04-25T04:03:45.783Z,14.50
2023-04-25T04:06:14.259Z,12.80
2023-04-25T04:08:44.066Z,13.40
2023-04-25T04:11:12.134Z,13.40
2023-04-25T04:13:39.491Z,12.90
2023-04-25T04:16:07.175Z,12.60
2023-04-25T04:18:34.300Z,12.50
2023-04-25T04:21:02.909Z,11.60
2023-04-25T04:23:33.934Z,11.70
2023-04-25T04:26:01.604Z,11.10
2023-04-25T04:29:01.063Z,9.10
2023-04-25T04:31:53.086Z,9.80
2023-04-25T04:34:21.344Z,11.10
2023-04-25T04:36:48.301Z,9.90
2023-04-25T04:39:15.108Z,9.30
2023-04-25T04:42:05.814Z,8.40
2023-04-25T04:44:45.222Z,11.00
2023-04-25T04:47:24.297Z,12.80
2023-04-25T04:50:04.536Z,12.40
2023-04-25T04:52:42.622Z,13.70
2023-04-25T04:55:28.686Z,13.00
2023-04-25T04:58:25.369Z,12.60
2023-04-25T05:01:03.154Z,10.50
2023-04-25T05:03:34.458Z,10.70
2023-04-25T05:06:29.764Z,10.50
2023-04-25T05:09:18.511Z,9.40
2023-04-25T05:12:03.702Z,9.40
2023-04-25T05:14:51.549Z,10.20
2023-04-25T05:17:51.086Z,9.60
2023-04-25T05:20:23.992Z,9.40
2023-04-25T05:23:16.034Z,9.40
2023-04-25T05:25:46.126Z,9.90
2023-04-25T05:28:37.802Z,9.60
2023-04-25T05:31:25.229Z,9.50
2023-04-25T05:34:01.383Z,9.70
2023-04-25T05:36:39.972Z,9.40
2023-04-25T05:39:06.903Z,9.10
2023-04-25T05:41:54.285Z,8.40
2023-04-25T05:44:53.558Z,7.80
2023-04-25T05:47:39.306Z,9.30
2023-04-25T05:50:26.896Z,8.80
2023-04-25T05:53:03.172Z,8.10
2023-04-25T05:55:33.573Z,8.10
2023-04-25T05:58:02.876Z,9.20
2023-04-25T06:00:33.410Z,8.50
2023-04-25T06:03:00.770Z,8.10
2023-04-25T06:05:28.285Z,8.70
2023-04-25T06:08:00.576Z,8.70
2023-04-25T06:10:29.415Z,8.50
2023-04-25T06:12:56.426Z,7.80
2023-04-25T06:15:28.549Z,7.90
2023-04-25T06:17:57.502Z,8.50
2023-04-25T06:20:26.781Z,7.60
2023-04-25T06:22:58.383Z,7.20
2023-04-25T06:25:46.305Z,6.80
2023-04-25T06:28:13.724Z,7.60
2023-04-25T06:30:42.301Z,8.00
2023-04-25T06:33:12.183Z,7.50
2023-04-25T06:35:39.426Z,7.80
2023-04-25T06:38:06.540Z,7.70
2023-04-25T06:40:34.005Z,8.20
2023-04-25T06:43:01.488Z,8.40
2023-04-25T06:45:54.551Z,8.40
2023-04-25T06:48:23.611Z,8.20
2023-04-25T06:50:51.018Z,7.90
2023-04-25T06:53:19.817Z,9.60
2023-04-25T06:55:49.046Z,9.10
2023-04-25T06:58:21.732Z,7.20
2023-04-25T07:01:00.908Z,8.40
2023-04-25T07:03:28.941Z,8.60
2023-04-25T07:06:00.832Z,8.80
2023-04-25T07:08:32.197Z,9.20
2023-04-25T07:10:59.325Z,9.20
2023-04-25T07:13:27.348Z,9.80
2023-04-25T07:15:56.722Z,9.60
2023-04-25T07:21:13.833Z,9.70
2023-04-25T07:23:45.177Z,10.80
2023-04-25T07:29:21.420Z,10.90
2023-04-25T07:31:50.502Z,11.90
2023-04-25T07:34:17.945Z,11.40
2023-04-25T07:36:48.010Z,11.80
2023-04-25T07:39:16.420Z,18.80
2023-04-25T07:41:45.075Z,18.00
2023-04-25T07:44:20.265Z,19.10
2023-04-25T07:46:51.179Z,26.30
2023-04-25T07:49:19.991Z,24.10
2023-04-25T07:51:50.196Z,25.90
2023-04-25T07:54:22.924Z,25.80
2023-04-25T07:59:54.517Z,21.90
2023-04-25T08:05:38.684Z,21.90
2023-04-25T08:08:08.775Z,22.50
2023-04-25T08:13:43.052Z,20.50
2023-04-25T08:22:23.413Z,21.70
2023-04-25T08:25:26.365Z,20.40
2023-04-25T08:28:01.255Z,19.40
2023-04-25T08:33:52.244Z,14.50
2023-04-25T08:37:01.028Z,13.10
2023-04-25T08:42:58.243Z,13.20
2023-04-25T08:48:19.727Z,9.20
2023-04-25T08:50:50.866Z,11.10
2023-04-25T08:53:22.767Z,11.90
2023-04-25T08:55:50.599Z,13.90
2023-04-25T08:58:19.449Z,15.70
2023-04-25T09:00:48.765Z,13.80
2023-04-25T09:06:00.400Z,12.70
2023-04-25T09:08:28.628Z,13.50
2023-04-25T09:11:05.080Z,11.00
2023-04-25T09:16:27.813Z,8.10
2023-04-25T09:22:18.131Z,8.60
2023-04-25T09:24:52.760Z,8.90
2023-04-25T09:27:41.152Z,8.60
2023-04-25T09:30:33.176Z,7.80
2023-04-25T09:33:40.359Z,6.20
2023-04-25T09:36:23.482Z,5.30
2023-04-25T09:48:37.713Z,3.80
2023-04-25T09:51:20.420Z,5.60
2023-04-25T09:53:52.542Z,5.00
2023-04-25T09:56:28.909Z,4.90
2023-04-25T09:58:56.487Z,4.20
2023-04-25T10:01:24.324Z,4.60
2023-04-25T10:04:04.808Z,4.90
2023-04-25T10:07:40.075Z,5.60
2023-04-25T10:10:17.632Z,4.70
2023-04-25T10:12:46.024Z,4.90
2023-04-25T10:15:14.525Z,4.90
2023-04-25T10:17:42.149Z,5.10
2023-04-25T10:20:12.345Z,5.30
2023-04-25T10:22:43.888Z,4.70
2023-04-25T10:25:10.922Z,5.40
2023-04-25T10:27:38.287Z,5.90
2023-04-25T10:30:13.777Z,6.00
2023-04-25T10:32:41.525Z,5.60
2023-04-25T10:35:12.721Z,6.40
2023-04-25T10:37:40.812Z,5.80
2023-04-25T10:40:11.766Z,4.80
2023-04-25T10:42:38.899Z,6.50
2023-04-25T10:45:06.812Z,6.20
2023-04-25T10:47:38.138Z,5.80
2023-04-25T10:50:09.559Z,6.50
2023-04-25T10:52:36.695Z,6.20
2023-04-25T10:55:07.371Z,5.30
2023-04-25T10:57:45.254Z,5.70
2023-04-25T11:00:17.145Z,5.80
2023-04-25T11:02:48.470Z,6.10
2023-04-25T11:05:33.176Z,6.20
2023-04-25T11:13:32.130Z,6.90
2023-04-25T11:16:07.487Z,7.40
2023-04-25T11:18:47.129Z,6.10
2023-04-25T11:23:59.446Z,7.60
2023-04-25T11:26:28.485Z,7.00
2023-04-25T11:29:02.573Z,6.70
2023-04-25T11:31:33.300Z,5.50
2023-04-25T11:40:13.613Z,6.70
2023-04-25T11:42:48.036Z,7.20
2023-04-25T11:45:17.929Z,5.90
2023-04-25T11:50:37.492Z,6.30
2023-04-25T11:53:12.876Z,6.60
2023-04-25T11:55:41.348Z,6.50
2023-04-25T11:58:13.500Z,6.10
2023-04-25T12:00:50.400Z,6.70
2023-04-25T12:06:19.296Z,7.10
2023-04-25T12:11:48.158Z,8.20
2023-04-25T12:14:33.147Z,7.80
2023-04-25T12:17:02.509Z,8.60
2023-04-25T12:19:37.011Z,7.20
2023-04-25T12:22:04.350Z,6.70
2023-04-25T12:24:36.509Z,7.30
2023-04-25T12:42:11.987Z,6.70
2023-04-25T12:50:30.694Z,7.00
2023-04-25T12:58:30.340Z,7.50
2023-04-25T13:00:57.580Z,8.50
2023-04-25T13:03:39.081Z,7.50
2023-04-25T13:06:09.032Z,6.70
2023-04-25T13:08:44.471Z,7.60
2023-04-25T13:11:13.874Z,7.90
2023-04-25T13:13:42.865Z,8.20
2023-04-25T13:16:11.155Z,7.80
2023-04-25T13:18:38.608Z,8.20
2023-04-25T13:21:08.530Z,8.10
2023-04-25T13:23:39.983Z,9.00
2023-04-25T13:26:08.212Z,5.90
2023-04-25T13:28:35.729Z,5.60
2023-04-25T13:31:07.858Z,4.60
2023-04-25T13:33:35.893Z,4.10
2023-04-25T13:36:06.877Z,4.10
2023-04-25T13:38:35.336Z,3.40
2023-04-25T13:41:03.360Z,4.10
2023-04-25T13:43:36.528Z,3.70
2023-04-25T13:46:06.145Z,4.20
2023-04-25T13:48:35.555Z,4.50
2023-04-25T13:51:03.391Z,3.60
2023-04-25T13:53:30.893Z,4.40
2023-04-25T13:55:58.285Z,3.60
2023-04-25T13:58:26.353Z,3.40
2023-04-25T14:00:54.787Z,3.40
2023-04-25T14:03:22.177Z,3.50
2023-04-25T14:05:49.654Z,4.10
2023-04-25T14:08:17.524Z,3.10
2023-04-25T14:10:44.699Z,4.20
2023-04-25T14:13:12.463Z,4.70
2023-04-25T14:15:39.901Z,4.60
2023-04-25T14:18:07.173Z,4.70
2023-04-25T14:20:34.494Z,5.20
2023-04-25T14:23:01.587Z,6.00
2023-04-25T14:25:28.921Z,5.50
2023-04-25T14:27:56.402Z,7.30
2023-04-25T14:30:23.528Z,5.50
2023-04-25T14:32:51.350Z,5.60
2023-04-25T14:35:18.792Z,5.40
2023-04-25T14:37:46.137Z,5.60
2023-04-25T14:40:14.416Z,5.40
2023-04-25T14:42:41.690Z,6.70
2023-04-25T14:45:09.871Z,7.70
2023-04-25T14:47:38.061Z,8.10
2023-04-25T14:50:10.630Z,7.70
2023-04-25T14:52:38.106Z,7.00
2023-04-25T14:55:06.457Z,6.20
2023-04-25T14:57:34.453Z,6.40
2023-04-25T15:00:02.204Z,5.30
2023-04-25T15:02:29.635Z,4.40
2023-04-25T15:04:57.824Z,4.60
2023-04-25T15:07:26.018Z,5.90
2023-04-25T15:09:54.711Z,4.50
2023-04-25T15:12:22.294Z,5.30
2023-04-25T15:15:08.818Z,4.90
2023-04-25T15:17:42.498Z,4.50
2023-04-25T15:20:17.128Z,5.20
2023-04-25T15:22:47.091Z,5.20
2023-04-25T15:25:14.663Z,5.20
2023-04-25T15:27:44.976Z,4.30
2023-04-25T15:30:13.943Z,4.80
2023-04-25T15:32:44.371Z,5.40
2023-04-25T15:35:13.872Z,4.60
2023-04-25T15:37:44.217Z,5.40
2023-04-25T15:40:16.097Z,5.40
2023-04-25T15:42:48.325Z,4.90
2023-04-25T15:45:18.110Z,6.10
2023-04-25T15:47:45.440Z,5.60
2023-04-25T15:50:16.352Z,4.90
2023-04-25T15:52:44.335Z,4.50
2023-04-25T15:55:13.985Z,5.50
2023-04-25T15:57:44.423Z,6.40
2023-04-25T16:00:16.058Z,5.60
2023-04-25T16:02:46.688Z,6.00
2023-04-25T16:05:16.228Z,5.20
2023-04-25T16:07:44.723Z,6.00
2023-04-25T16:10:12.235Z,4.50
2023-04-25T16:12:40.904Z,5.70
2023-04-25T16:15:09.635Z,5.80
2023-04-25T16:17:37.086Z,4.30
2023-04-25T16:20:10.637Z,4.80
2023-04-25T16:23:01.442Z,4.80
2023-04-25T16:25:28.944Z,5.50
2023-04-25T16:27:59.385Z,4.50
2023-04-25T16:30:27.177Z,6.00
2023-04-25T16:32:57.894Z,6.10
2023-04-25T16:35:26.474Z,5.20
2023-04-25T16:37:57.242Z,5.00
2023-04-25T16:40:24.773Z,5.30
2023-04-25T16:42:55.021Z,5.10
2023-04-25T16:45:23.201Z,6.10
2023-04-25T16:47:51.125Z,8.60
2023-04-25T16:50:19.230Z,7.70
2023-04-25T16:52:46.683Z,7.20
2023-04-25T16:55:14.269Z,7.00
2023-04-25T16:58:13.902Z,8.30
2023-04-25T17:03:44.619Z,7.10
2023-04-25T17:05:33.569Z,7.60
2023-04-25T17:08:57.959Z,8.30
2023-04-25T17:11:28.992Z,9.20
2023-04-25T17:13:56.310Z,9.30
2023-04-25T17:16:23.827Z,7.70
2023-04-25T17:18:51.543Z,7.60
2023-04-25T17:21:19.187Z,8.00
2023-04-25T17:23:46.659Z,6.40
2023-04-25T17:26:17.569Z,6.50
2023-04-25T17:28:52.394Z,6.80
2023-04-25T17:31:25.110Z,6.80
2023-04-25T17:33:52.824Z,8.20
2023-04-25T17:36:20.437Z,7.20
2023-04-25T17:38:57.383Z,8.30
2023-04-25T17:41:45.169Z,10.10
2023-04-25T17:44:25.464Z,8.10
2023-04-25T17:46:53.286Z,6.70
2023-04-25T17:49:20.852Z,7.30
2023-04-25T17:51:52.250Z,44.30
2023-04-25T17:54:22.522Z,8.00
2023-04-25T17:56:53.200Z,6.50
2023-04-25T17:59:21.611Z,7.60
2023-04-25T18:01:51.745Z,20.80
2023-04-25T18:04:19.104Z,27.70
2023-04-25T18:06:49.185Z,9.00
2023-04-25T18:09:35.736Z,7.90
2023-04-25T18:12:06.054Z,8.00
2023-04-25T18:14:37.808Z,10.50
2023-04-25T18:17:12.421Z,8.70
2023-04-25T18:19:39.848Z,8.00
2023-04-25T18:22:09.568Z,7.50
2023-04-25T18:24:37.061Z,7.50
2023-04-25T18:27:06.172Z,8.40
2023-04-25T18:29:34.161Z,7.10
2023-04-25T18:32:02.414Z,7.30
2023-04-25T18:34:29.902Z,7.30
2023-04-25T18:36:57.024Z,6.60
2023-04-25T18:39:31.658Z,6.50
2023-04-25T18:42:04.103Z,6.60
2023-04-25T18:44:40.842Z,6.80
2023-04-25T18:47:08.747Z,5.60
2023-04-25T18:49:36.025Z,7.20
2023-04-25T18:52:03.823Z,7.10
2023-04-25T18:54:34.240Z,6.40
2023-04-25T18:57:02.989Z,7.20
2023-04-25T18:59:30.180Z,7.10
2023-04-25T19:01:57.447Z,8.10
2023-04-25T19:04:24.931Z,7.70
2023-04-25T19:06:52.474Z,8.60
2023-04-25T19:09:20.107Z,12.70
2023-04-25T19:11:47.727Z,12.60
2023-04-25T19:14:14.904Z,9.80
2023-04-25T19:16:42.038Z,12.10
2023-04-25T19:19:10.078Z,15.50
2023-04-25T19:21:37.084Z,31.10
2023-04-25T19:24:05.304Z,19.80
2023-04-25T19:26:32.674Z,16.00
2023-04-25T19:29:11.689Z,15.30
2023-04-25T19:31:39.521Z,19.70
2023-04-25T19:34:07.865Z,13.30
2023-04-25T19:36:39.909Z,13.50
2023-04-25T19:39:07.701Z,12.80
2023-04-25T19:41:36.422Z,11.30
2023-04-25T19:44:06.188Z,11.00
2023-04-25T19:46:33.698Z,10.10
2023-04-25T19:49:01.722Z,8.10
2023-04-25T19:51:29.393Z,7.60
2023-04-25T19:53:56.664Z,8.10
2023-04-25T19:56:24.541Z,7.60
2023-04-25T19:58:51.965Z,7.40
2023-04-25T20:01:22.637Z,6.60
2023-04-25T20:03:52.865Z,7.40
2023-04-25T20:06:20.314Z,7.70
2023-04-25T20:08:47.556Z,6.20
2023-04-25T20:11:15.346Z,5.60
2023-04-25T20:13:42.376Z,6.00
2023-04-25T20:16:09.809Z,5.80
2023-04-25T20:18:36.837Z,5.40
2023-04-25T20:21:03.998Z,6.20
2023-04-25T20:23:31.092Z,6.10
2023-04-25T20:25:58.100Z,5.80
2023-04-25T20:28:25.630Z,6.20
2023-04-25T20:30:52.652Z,6.60
2023-04-25T20:33:19.629Z,6.30
2023-04-25T20:35:46.844Z,6.40
2023-04-25T20:38:14.344Z,6.00
2023-04-25T20:40:41.367Z,6.00
2023-04-25T20:43:11.290Z,6.20
2023-04-25T20:45:39.882Z,6.30
2023-04-25T20:48:07.023Z,6.10
2023-04-25T20:50:34.069Z,6.20
2023-04-25T20:53:01.089Z,6.80
2023-04-25T20:55:28.061Z,5.50
2023-04-25T20:57:54.983Z,5.80
2023-04-25T21:00:29.291Z,6.40
2023-04-25T21:05:11.335Z,4.10
2023-04-25T21:07:38.987Z,4.80
2023-04-25T21:10:06.286Z,4.90
2023-04-25T21:12:33.866Z,4.90
2023-04-25T21:15:02.338Z,5.20
2023-04-25T21:17:29.431Z,5.20
2023-04-25T21:19:56.935Z,5.20
2023-04-25T21:22:23.935Z,4.70
2023-04-25T21:24:55.742Z,5.00
2023-04-25T21:27:22.734Z,5.20
2023-04-25T21:29:49.896Z,4.40
2023-04-25T21:32:21.046Z,5.10
2023-04-25T21:34:47.956Z,4.60
2023-04-25T21:37:14.903Z,4.20
2023-04-25T21:39:41.827Z,3.60
2023-04-25T21:42:09.526Z,2.90
2023-04-25T21:44:36.635Z,3.50
2023-04-25T21:47:05.192Z,3.60
2023-04-25T21:49:33.042Z,3.90
2023-04-25T21:52:00.400Z,3.50
2023-04-25T21:54:27.429Z,3.80
2023-04-25T21:56:54.464Z,3.90
2023-04-25T21:59:24.145Z,3.80
2023-04-25T22:01:51.781Z,4.70
2023-04-25T22:04:18.980Z,3.70
2023-04-25T22:06:46.742Z,4.70
2023-04-25T22:09:14.832Z,4.30
2023-04-25T22:11:43.194Z,4.30
2023-04-25T22:14:11.243Z,4.60
2023-04-25T22:16:38.948Z,4.70
2023-04-25T22:19:08.156Z,4.60
2023-04-25T22:21:35.169Z,3.10
2023-04-25T22:24:02.882Z,7.00
2023-04-25T22:26:30.700Z,4.00
2023-04-25T22:28:57.697Z,5.00
2023-04-25T22:31:24.669Z,4.50
2023-04-25T22:33:51.687Z,4.00
2023-04-25T22:36:19.869Z,4.50
2023-04-25T22:38:47.011Z,3.70
2023-04-25T22:41:15.112Z,4.00
2023-04-25T22:43:43.274Z,3.90
2023-04-25T22:46:18.056Z,4.30
2023-04-25T22:48:45.751Z,4.00
2023-04-25T22:51:12.789Z,4.30
2023-04-25T22:53:40.255Z,3.90
2023-04-25T22:56:08.045Z,3.90
2023-04-25T22:58:35.039Z,3.80
2023-04-25T23:01:02.050Z,3.90
2023-04-25T23:03:29.255Z,3.20
2023-04-25T23:05:56.988Z,4.00
2023-04-25T23:08:24.095Z,4.60
2023-04-25T23:10:51.004Z,3.40
2023-04-25T23:13:19.988Z,3.60
2023-04-25T23:15:47.214Z,3.40
2023-04-25T23:18:14.746Z,4.50
2023-04-25T23:20:43.098Z,3.80
2023-04-25T23:23:09.974Z,3.90
2023-04-25T23:25:40.496Z,4.40
2023-04-25T23:28:07.840Z,4.30
2023-04-25T23:30:34.900Z,4.10
2023-04-25T23:33:02.012Z,4.50
2023-04-25T23:35:29.049Z,4.30
2023-04-25T23:37:56.531Z,4.30
2023-04-25T23:40:23.603Z,5.00
2023-04-25T23:42:50.785Z,4.70
2023-04-25T23:45:17.760Z,4.80
2023-04-25T23:47:45.114Z,5.20
2023-04-25T23:50:12.336Z,5.30
2023-04-25T23:52:39.286Z,5.10
2023-04-25T23:55:06.817Z,4.80
2023-04-25T23:57:33.952Z,5.30
